Nearby METAR Reports

 

EGQL - Leuchars Raf, United Kingdom
Distance from station: SW 17km
Updated: 21/05/2019 17:50
Clear
Clear
 Wind from W
Wind: W 7 km/h
Temperature: 6°C
Wind Chill: 4°C
Dew Point: 6°C
Humidity: 100%
Barometer: 1017 hPa
Summary: Clear
Visibility: greater than 10 km
2019/05/22 00:50 EGQL 220050Z 27004KT CAVOK 06/06 Q1017 BLU
EGPN - Dundee/Riverside, United Kingdom
Distance from station: WSW 20km
Updated: 21/05/2019 12:50
NOT Current
Few Clouds
Few Clouds
 Wind from SSE
Wind: SSE 7 km/h
Temperature: 12°C
Dew Point: 10°C
Humidity: 88%
Barometer: 1018 hPa
Clouds: Few Clouds
Visibility: 10 km
Cloud details: Few Clouds 457 m
Few Clouds 914 m
2019/05/21 19:50 EGPN 211950Z 15004KT 9999 FEW015 FEW030CB 12/10 Q1018
 
EGPH - Edinburgh Airpor, United Kingdom
Distance from station: SSW 74km
Updated: 21/05/2019 17:50
Partly cloudy
Partly cloudy
 Wind from WSW
Wind: WSW 9 km/h
Temperature: 6°C
Wind Chill: 4°C
Dew Point: 5°C
Humidity: 93%
Barometer: 1018 hPa
Clouds: Partly cloudy
Visibility: 10 km
Cloud details: Partly cloudy 1219 m
2019/05/22 00:50 EGPH 220050Z 25005KT 9999 SCT040 06/05 Q1018
EGPD - Aberdeen/Dyce, United Kingdom
Distance from station: NNE 82km
Updated: 21/05/2019 17:20
Clear
Clear
 Wind from W
Wind: W 11 km/h
Temperature: 7°C
Wind Chill: 5°C
Dew Point: 5°C
Humidity: 87%
Barometer: 1017 hPa
Clouds: Clear
Visibility: 10 km
2019/05/22 00:20 EGPD 220020Z AUTO 28006KT 9999 NCD 07/05 Q1017 NOSIG